Terminal Aerodrome Forecast
Issued by NWS Bismarck, ND

Home | Current Version | Previous Version | Graphics & Text | Print | Product List | Glossary On
Versions: 1 2 3 4 5 6 7 8 9 10 11 12 13 14 15 16 17 18 19 20 21 22 23
658
FTUS43 KBIS 180841 AAE
TAFBIS
TAF AMD
KBIS 180841Z 1809/1906 08012KT 6SM -SN SCT025 OVC040
     FM181100 05010G18KT 2SM -SN OVC015
     FM181700 02011G19KT P6SM BKN020
     FM190300 01008KT P6SM OVC020=

USA.gov is the U.S. government's official web portal to all federal, state and local government web resources and services.